Time;durP1;ratioP1;P1;durP2;ratioP2;P2;SDS_P1;SDS_P2;PMS_P1;PMS_P2;Temp;Humidity;BMP_temperature;BMP_pressure;BME280_temperature;BME280_humidity;BME280_pressure;Samples;Min_cycle;Max_cycle;Signal;HPM_P1;HPM_P2
2022/12/23 00:00:59;;;;;;;14.67;11.47;;;;;;;9.44;100.00;98919.38;5102089;28;20490;-64
2022/12/23 00:03:29;;;;;;;17.93;13.33;;;;;;;9.43;100.00;98912.38;5103009;28;20451;-65
2022/12/23 00:05:56;;;;;;;13.63;11.30;;;;;;;9.41;100.00;98909.06;5101944;28;20890;-64
2022/12/23 00:08:23;;;;;;;19.17;13.73;;;;;;;9.50;100.00;98912.56;5102770;28;20478;-64
2022/12/23 00:10:51;;;;;;;19.20;14.93;;;;;;;9.54;100.00;98914.72;5101247;28;20475;-64
2022/12/23 00:16:04;;;;;;;17.80;14.30;;;;;;;9.49;100.00;98918.88;5101440;28;20486;-64
2022/12/23 00:18:33;;;;;;;18.40;14.00;;;;;;;9.60;100.00;98918.56;5103293;28;20496;-65
2022/12/23 00:21:00;;;;;;;18.40;13.23;;;;;;;9.59;100.00;98915.03;5100440;28;20577;-64
2022/12/23 00:23:27;;;;;;;17.43;13.47;;;;;;;9.61;100.00;98912.22;5103177;28;20443;-64
2022/12/23 00:25:54;;;;;;;17.27;13.40;;;;;;;9.58;100.00;98910.72;5100280;28;20482;-64
2022/12/23 00:28:23;;;;;;;16.73;12.73;;;;;;;9.58;100.00;98909.88;5102830;28;20485;-64
2022/12/23 00:30:51;;;;;;;18.00;14.43;;;;;;;9.50;100.00;98913.38;5101330;28;20548;-64
2022/12/23 00:33:19;;;;;;;18.63;14.60;;;;;;;9.52;100.00;98923.91;5101843;28;20436;-64
2022/12/23 00:35:49;;;;;;;21.30;15.80;;;;;;;9.62;100.00;98916.56;5063481;28;20705;-64
2022/12/23 00:38:16;;;;;;;20.50;14.93;;;;;;;9.56;100.00;98917.22;5102242;28;20471;-64
2022/12/23 00:43:27;;;;;;;26.93;17.50;;;;;;;9.61;100.00;98905.03;5101692;28;21005;-64
2022/12/23 00:45:54;;;;;;;36.60;19.57;;;;;;;9.55;100.00;98911.06;5101638;28;20540;-64
2022/12/23 00:51:07;;;;;;;32.80;22.23;;;;;;;9.64;100.00;98913.72;5100665;28;20497;-65
2022/12/23 00:53:33;;;;;;;38.43;24.07;;;;;;;9.56;100.00;98919.88;5102168;28;20459;-65
2022/12/23 00:56:00;;;;;;;30.60;21.23;;;;;;;9.54;100.00;98916.56;5100447;28;20482;-65
2022/12/23 00:58:27;;;;;;;35.73;21.87;;;;;;;9.64;100.00;98914.56;5102152;28;20445;-64
2022/12/23 01:06:24;;;;;;;28.30;17.53;;;;;;;9.64;100.00;98924.41;5099724;28;20493;-64
2022/12/23 01:08:50;;;;;;;32.03;18.30;;;;;;;9.71;100.00;98930.72;5102084;28;20721;-64
2022/12/23 01:11:17;;;;;;;29.10;19.80;;;;;;;9.68;100.00;98925.72;5100206;28;20507;-64
2022/12/23 01:13:44;;;;;;;27.50;19.57;;;;;;;9.64;100.00;98930.56;5101994;28;20446;-65
2022/12/23 01:16:11;;;;;;;29.10;19.73;;;;;;;9.60;100.00;98931.91;5100081;28;20486;-65
2022/12/23 01:18:39;;;;;;;32.63;19.17;;;;;;;9.54;100.00;98932.56;5101789;28;20497;-64
2022/12/23 01:21:08;;;;;;;34.83;22.00;;;;;;;9.59;100.00;98930.22;5099473;28;20478;-64
2022/12/23 01:23:36;;;;;;;46.50;24.17;;;;;;;9.53;100.00;98921.06;5101230;28;20688;-64
2022/12/23 01:26:05;;;;;;;39.23;24.30;;;;;;;9.54;100.00;98916.56;5100698;28;20483;-64
2022/12/23 01:28:32;;;;;;;43.33;26.33;;;;;;;9.53;100.00;98915.72;5101709;28;20448;-64
2022/12/23 01:31:00;;;;;;;44.80;26.63;;;;;;;9.56;100.00;98922.56;5100311;28;20479;-64
2022/12/23 01:33:28;;;;;;;42.00;25.50;;;;;;;9.54;100.00;98922.72;5101316;28;20443;-64
2022/12/23 01:36:00;;;;;;;43.60;26.90;;;;;;;10.43;100.00;98924.59;5085844;28;20480;-64
2022/12/23 01:38:27;;;;;;;42.90;25.10;;;;;;;9.65;100.00;98934.88;5101015;28;20543;-64
2022/12/23 01:40:55;;;;;;;38.53;24.87;;;;;;;9.65;100.00;98942.06;5100008;28;20475;-64
2022/12/23 01:43:22;;;;;;;39.70;26.37;;;;;;;9.63;100.00;98941.41;5101885;28;20432;-64
2022/12/23 01:45:49;;;;;;;35.80;23.67;;;;;;;9.73;100.00;98936.72;5099993;28;20708;-64
2022/12/23 01:48:18;;;;;;;40.63;23.80;;;;;;;9.65;100.00;98942.06;5101402;28;20497;-64
2022/12/23 01:50:48;;;;;;;40.53;21.40;;;;;;;9.56;100.00;98944.72;5099506;28;21114;-64
2022/12/23 01:53:17;;;;;;;38.77;22.83;;;;;;;9.65;100.00;98944.72;5100674;28;20447;-63
2022/12/23 01:55:47;;;;;;;41.63;27.33;;;;;;;9.67;100.00;98938.25;5100487;28;20501;-64
2022/12/23 01:58:18;;;;;;;39.43;25.47;;;;;;;9.65;100.00;98932.22;5101139;28;20884;-64
2022/12/23 02:03:44;;;;;;;53.83;24.80;;;;;;;9.70;100.00;98945.88;5093982;28;20435;-64
2022/12/23 02:12:20;;;;;;;35.77;24.60;;;;;;;9.58;100.00;98952.56;5099193;28;20490;-64
2022/12/23 02:17:49;;;;;;;40.33;21.77;;;;;;;9.72;100.00;98948.41;5072095;28;20474;-64
2022/12/23 02:20:53;;;;;;;35.63;21.27;;;;;;;9.60;100.00;98946.06;5098367;28;20473;-64
2022/12/23 02:23:50;;;;;;;27.83;19.07;;;;;;;9.67;100.00;98950.72;5098963;28;20459;-64
2022/12/23 02:26:41;;;;;;;26.60;19.10;;;;;;;9.63;100.00;98957.41;5068208;28;20572;-64
2022/12/23 02:29:33;;;;;;;27.40;17.30;;;;;;;9.68;100.00;98958.56;5066580;28;20436;-64
2022/12/23 02:32:07;;;;;;;26.07;18.30;;;;;;;9.69;100.00;98956.75;5065971;28;20479;-64
2022/12/23 02:34:40;;;;;;;28.03;17.57;;;;;;;9.72;100.00;98957.25;5099285;28;20479;-64
2022/12/23 02:37:14;;;;;;;27.87;18.60;;;;;;;9.75;100.00;98961.41;5081300;28;20519;-64
2022/12/23 02:39:48;;;;;;;29.23;17.60;;;;;;;9.78;100.00;98966.41;5099929;28;20483;-64
2022/12/23 02:42:16;;;;;;;26.10;16.70;;;;;;;9.74;100.00;98967.78;5099548;28;20483;-64
2022/12/23 02:44:45;;;;;;;29.77;18.67;;;;;;;9.71;100.00;98965.44;5100718;28;20443;-64
2022/12/23 02:47:17;;;;;;;28.17;17.50;;;;;;;9.64;100.00;98962.59;5099635;28;20475;-64
2022/12/23 02:49:47;;;;;;;25.60;18.37;;;;;;;9.69;100.00;98962.09;5102244;28;20485;-64
2022/12/23 02:52:16;;;;;;;28.17;18.57;;;;;;;9.72;100.00;98972.41;5097209;28;20471;-63
2022/12/23 02:54:46;;;;;;;27.00;19.17;;;;;;;9.68;100.00;98968.41;5072567;28;20792;-64
2022/12/23 02:57:14;;;;;;;36.47;20.83;;;;;;;9.66;100.00;98973.09;5102783;28;20520;-64
2022/12/23 02:59:44;;;;;;;38.30;23.13;;;;;;;9.62;100.00;98972.59;5104105;28;20465;-64
2022/12/23 03:02:10;;;;;;;35.73;21.70;;;;;;;9.63;100.00;98970.75;5103369;28;20521;-64
2022/12/23 03:04:39;;;;;;;37.33;21.53;;;;;;;9.66;100.00;98976.59;5104068;28;20455;-64
2022/12/23 03:07:06;;;;;;;40.33;21.50;;;;;;;9.71;100.00;98974.25;5103029;28;20483;-64
2022/12/23 03:09:39;;;;;;;29.87;20.47;;;;;;;9.75;100.00;98980.91;5103726;28;20453;-64
2022/12/23 03:12:12;;;;;;;28.13;18.87;;;;;;;9.73;100.00;98982.09;5102590;28;20532;-64
2022/12/23 03:14:58;;;;;;;26.53;18.73;;;;;;;9.70;100.00;98985.09;5104493;28;20443;-64
2022/12/23 03:17:32;;;;;;;29.00;17.93;;;;;;;9.65;100.00;98977.56;5096330;28;20837;-64
2022/12/23 03:20:06;;;;;;;28.23;19.67;;;;;;;9.66;100.00;98986.44;5101538;28;20480;-64
2022/12/23 03:22:35;;;;;;;29.43;19.37;;;;;;;9.73;100.00;98988.25;5103418;28;20459;-64
2022/12/23 03:25:06;;;;;;;29.10;21.63;;;;;;;9.71;100.00;98992.94;5103632;28;20569;-64
2022/12/23 03:27:38;;;;;;;34.50;22.37;;;;;;;9.72;100.00;98996.44;5103425;28;20451;-64
2022/12/23 03:30:07;;;;;;;32.23;22.03;;;;;;;9.64;100.00;99002.63;5097267;28;20459;-64
2022/12/23 03:32:37;;;;;;;30.20;21.90;;;;;;;9.85;100.00;98996.78;5102988;28;20468;-64
2022/12/23 03:35:08;;;;;;;33.10;21.70;;;;;;;9.78;100.00;99006.47;5102710;28;20980;-64
2022/12/23 03:37:36;;;;;;;29.97;19.93;;;;;;;9.71;100.00;98998.28;5103170;28;20497;-64
2022/12/23 03:40:07;;;;;;;29.27;18.27;;;;;;;9.71;100.00;99000.13;5103159;28;20510;-64
2022/12/23 03:42:35;;;;;;;24.70;16.53;;;;;;;9.71;100.00;99006.28;5102977;28;20708;-64
2022/12/23 03:45:08;;;;;;;23.03;17.50;;;;;;;9.80;100.00;99015.94;5103905;28;20469;-64
2022/12/23 03:47:37;;;;;;;24.73;16.47;;;;;;;9.78;100.00;99012.63;5102895;28;20693;-64
2022/12/23 03:50:07;;;;;;;21.77;16.50;;;;;;;9.77;100.00;99015.44;5101202;28;20451;-64
2022/12/23 03:52:37;;;;;;;26.00;16.50;;;;;;;9.71;100.00;99018.81;5071422;28;20493;-64
2022/12/23 03:55:06;;;;;;;22.33;15.90;;;;;;;9.80;100.00;99015.13;5102956;28;20468;-64
2022/12/23 03:57:39;;;;;;;20.03;14.83;;;;;;;9.85;100.00;99023.47;5102786;28;20456;-64
2022/12/23 04:00:07;;;;;;;23.03;15.33;;;;;;;9.75;100.00;99020.13;5072285;28;20475;-64
2022/12/23 04:02:40;;;;;;;19.90;14.47;;;;;;;9.74;100.00;99015.81;5102505;28;20460;-64
2022/12/23 04:05:19;;;;;;;21.43;14.40;;;;;;;9.83;100.00;99025.47;5101495;28;20679;-64
2022/12/23 04:07:48;;;;;;;19.37;13.23;;;;;;;9.76;100.00;99030.66;5103411;28;20448;-65
2022/12/23 04:10:15;;;;;;;14.20;11.00;;;;;;;9.74;100.00;99027.31;5102144;28;20447;-65
2022/12/23 04:12:42;;;;;;;16.43;10.87;;;;;;;9.75;100.00;99034.31;5102675;28;20491;-65
2022/12/23 04:15:09;;;;;;;14.87;10.37;;;;;;;9.76;100.00;99037.81;5102268;28;20448;-64
2022/12/23 04:17:36;;;;;;;17.27;10.13;;;;;;;9.84;100.00;99034.31;5103082;28;20444;-65
2022/12/23 04:20:03;;;;;;;12.90;9.90;;;;;;;9.79;100.00;99032.13;5101739;28;20451;-64
2022/12/23 04:22:31;;;;;;;10.37;8.13;;;;;;;9.83;100.00;99035.34;5101262;28;20487;-64
2022/12/23 04:24:58;;;;;;;11.10;8.37;;;;;;;9.75;100.00;99039.63;5103176;28;20443;-64
2022/12/23 04:27:25;;;;;;;7.90;7.10;;;;;;;9.77;100.00;99039.47;5101823;28;20486;-65
2022/12/23 04:29:53;;;;;;;9.27;6.93;;;;;;;9.80;100.00;99037.31;5102599;28;20444;-65
2022/12/23 04:32:20;;;;;;;11.17;7.83;;;;;;;9.72;100.00;99048.00;5101417;28;20504;-64
2022/12/23 04:34:46;;;;;;;12.73;7.37;;;;;;;9.67;100.00;99047.66;5101682;28;20682;-65
2022/12/23 04:37:13;;;;;;;9.40;7.63;;;;;;;9.74;100.00;99048.66;5101218;28;20479;-64
2022/12/23 04:39:41;;;;;;;13.93;8.53;;;;;;;9.77;100.00;99051.00;5102146;28;20499;-64
2022/12/23 04:42:08;;;;;;;12.60;9.10;;;;;;;9.73;100.00;99051.50;5101647;28;20497;-65
2022/12/23 04:44:35;;;;;;;15.43;10.80;;;;;;;9.68;100.00;99046.63;5102187;28;20527;-65
2022/12/23 04:47:01;;;;;;;14.20;9.43;;;;;;;9.75;100.00;99044.97;5101392;28;20479;-65
2022/12/23 04:49:28;;;;;;;15.37;9.97;;;;;;;9.71;100.00;99043.66;5100870;28;20939;-65
2022/12/23 04:51:55;;;;;;;16.90;10.43;;;;;;;9.75;100.00;99044.16;5100848;28;20548;-64
2022/12/23 04:54:22;;;;;;;13.00;9.87;;;;;;;9.75;100.00;99046.81;5100154;28;20456;-64
2022/12/23 04:56:50;;;;;;;16.53;10.10;;;;;;;9.69;100.00;99045.66;5100928;28;20973;-64
2022/12/23 04:59:17;;;;;;;15.63;10.63;;;;;;;9.76;100.00;99048.50;5102414;28;20450;-65
2022/12/23 05:01:44;;;;;;;18.10;10.30;;;;;;;9.62;100.00;99047.31;5100819;28;21002;-65
2022/12/23 05:04:11;;;;;;;14.33;9.60;;;;;;;9.66;100.00;99045.97;5101006;28;20450;-64
2022/12/23 05:06:38;;;;;;;12.97;9.30;;;;;;;9.75;100.00;99047.66;5100817;28;20479;-65
2022/12/23 05:09:05;;;;;;;16.10;10.90;;;;;;;9.73;100.00;99054.16;5101970;28;20447;-65
2022/12/23 05:11:33;;;;;;;17.33;9.40;;;;;;;9.80;100.00;99052.50;5100223;28;20486;-65
2022/12/23 05:14:01;;;;;;;21.07;10.17;;;;;;;9.79;100.00;99061.50;5101636;28;20465;-65
2022/12/23 05:16:29;;;;;;;19.53;11.43;;;;;;;9.74;100.00;99059.34;5100600;28;20483;-65
2022/12/23 05:18:56;;;;;;;15.93;9.43;;;;;;;9.75;100.00;99068.16;5100780;28;20931;-65
2022/12/23 05:21:23;;;;;;;16.37;10.80;;;;;;;9.79;100.00;99074.84;5099700;28;20544;-65
2022/12/23 05:23:49;;;;;;;18.03;10.90;;;;;;;9.78;100.00;99074.00;5101739;28;20440;-65
2022/12/23 05:26:16;;;;;;;18.50;10.77;;;;;;;9.78;100.00;99081.19;5100812;28;20479;-65
2022/12/23 05:28:44;;;;;;;20.47;10.80;;;;;;;9.73;100.00;99088.84;5101670;28;20450;-65
2022/12/23 05:31:13;;;;;;;17.37;10.87;;;;;;;9.68;100.00;99092.00;5100101;28;20493;-65
2022/12/23 05:33:40;;;;;;;17.43;10.80;;;;;;;9.72;100.00;99100.53;5100976;28;20498;-65
2022/12/23 05:36:07;;;;;;;17.00;11.10;;;;;;;9.69;100.00;99098.19;5100174;28;20479;-65
2022/12/23 05:38:34;;;;;;;14.63;9.30;;;;;;;9.67;100.00;99097.50;5101561;28;20506;-65
2022/12/23 05:41:02;;;;;;;20.57;12.57;;;;;;;9.72;100.00;99101.38;5099643;28;20479;-65
2022/12/23 05:43:29;;;;;;;17.90;11.10;;;;;;;9.70;100.00;99103.34;5101705;28;20984;-65
2022/12/23 05:45:55;;;;;;;17.97;12.60;;;;;;;9.77;100.00;99108.88;5099967;28;20984;-65
2022/12/23 05:48:23;;;;;;;19.97;10.90;;;;;;;9.68;100.00;99099.19;5100542;28;20448;-64
2022/12/23 05:50:51;;;;;;;18.53;10.60;;;;;;;9.69;100.00;99104.38;5098983;28;20471;-64
2022/12/23 05:53:18;;;;;;;22.63;12.40;;;;;;;9.64;100.00;99098.69;5100777;28;20447;-64
2022/12/23 05:55:45;;;;;;;21.67;13.30;;;;;;;9.74;100.00;99102.03;5100524;28;20766;-65
2022/12/23 05:58:12;;;;;;;19.23;12.27;;;;;;;9.64;100.00;99098.69;5101303;28;20454;-64
2022/12/23 06:00:38;;;;;;;22.07;13.20;;;;;;;9.68;100.00;99097.34;5099871;28;20471;-64
2022/12/23 06:03:05;;;;;;;20.63;11.93;;;;;;;9.66;100.00;99099.34;5099264;28;20460;-64
2022/12/23 06:05:35;;;;;;;19.13;11.73;;;;;;;9.56;100.00;99101.31;5099477;28;20480;-65
2022/12/23 06:08:02;;;;;;;20.23;11.63;;;;;;;9.65;100.00;99096.84;5099221;28;20477;-65
2022/12/23 06:10:29;;;;;;;20.73;11.27;;;;;;;9.60;100.00;99108.03;5100027;28;20471;-64
2022/12/23 06:12:55;;;;;;;21.80;12.50;;;;;;;9.56;100.00;99115.47;5100246;28;20483;-64
2022/12/23 06:15:22;;;;;;;25.30;13.07;;;;;;;9.55;100.00;99123.69;5098608;28;20459;-64
2022/12/23 06:17:49;;;;;;;21.77;12.80;;;;;;;9.61;100.00;99117.69;5100356;28;20440;-64
2022/12/23 06:20:16;;;;;;;18.30;10.83;;;;;;;9.65;100.00;99118.19;5099267;28;20451;-64
2022/12/23 06:22:44;;;;;;;21.53;12.30;;;;;;;9.63;100.00;99120.19;5098133;28;20455;-64
2022/12/23 06:25:11;;;;;;;23.40;12.67;;;;;;;9.61;100.00;99128.34;5104685;28;20451;-64
2022/12/23 06:27:38;;;;;;;22.17;12.57;;;;;;;9.56;100.00;99147.50;5104521;28;20814;-65
2022/12/23 06:30:05;;;;;;;18.47;11.30;;;;;;;9.60;100.00;99148.88;5105198;28;20451;-64
2022/12/23 06:32:32;;;;;;;18.53;11.53;;;;;;;9.61;100.00;99139.03;5103718;28;20484;-64
2022/12/23 06:34:59;;;;;;;17.77;10.80;;;;;;;9.79;100.00;99145.09;5100600;28;20477;-64
2022/12/23 06:37:25;;;;;;;20.03;10.10;;;;;;;9.73;100.00;99152.91;5074352;28;20488;-64
2022/12/23 06:39:54;;;;;;;18.10;11.30;;;;;;;9.76;100.00;99152.59;5098161;28;20509;-65
2022/12/23 06:42:20;;;;;;;19.37;11.23;;;;;;;9.82;100.00;99149.25;5102740;28;20475;-64
2022/12/23 06:44:47;;;;;;;19.17;11.47;;;;;;;9.81;100.00;99155.63;5104737;28;20790;-64
2022/12/23 06:47:14;;;;;;;18.30;10.30;;;;;;;9.68;100.00;99164.06;5099895;28;20482;-65
2022/12/23 06:49:40;;;;;;;20.80;11.43;;;;;;;9.51;100.00;99173.88;5093921;28;20475;-64
2022/12/23 06:52:07;;;;;;;20.57;11.57;;;;;;;9.55;100.00;99175.22;5086667;28;20480;-64
2022/12/23 06:54:34;;;;;;;26.30;14.27;;;;;;;9.40;100.00;99174.13;5090760;28;20468;-64
2022/12/23 06:57:02;;;;;;;22.60;11.87;;;;;;;9.53;100.00;99174.53;5083098;28;20484;-64
2022/12/23 06:59:30;;;;;;;22.50;13.70;;;;;;;9.48;100.00;99176.00;5083010;28;20506;-65
2022/12/23 07:01:57;;;;;;;28.20;13.97;;;;;;;9.46;100.00;99173.50;5097450;28;20986;-64
2022/12/23 07:04:23;;;;;;;24.97;13.20;;;;;;;9.43;100.00;99171.97;5102984;28;20451;-64
2022/12/23 07:06:50;;;;;;;29.70;15.20;;;;;;;9.29;100.00;99180.59;5095429;28;20501;-64
2022/12/23 07:09:17;;;;;;;28.60;15.40;;;;;;;9.27;100.00;99185.25;5092366;28;20443;-64
2022/12/23 07:11:44;;;;;;;28.33;14.93;;;;;;;9.29;100.00;99183.25;5102828;28;20479;-64
2022/12/23 07:14:12;;;;;;;27.57;16.93;;;;;;;9.34;100.00;99191.63;5079510;28;20463;-64
2022/12/23 07:16:39;;;;;;;30.80;16.03;;;;;;;9.28;100.00;99186.06;5088172;28;20479;-64
2022/12/23 07:19:05;;;;;;;28.27;15.23;;;;;;;9.17;100.00;99195.19;5083140;28;20448;-64
2022/12/23 07:21:33;;;;;;;26.93;16.10;;;;;;;9.16;100.00;99194.34;5097160;28;20568;-64
2022/12/23 07:24:00;;;;;;;33.73;17.50;;;;;;;9.20;100.00;99197.50;5093671;28;20463;-64
2022/12/23 07:26:26;;;;;;;36.13;17.90;;;;;;;9.34;100.00;99193.44;5090073;28;20498;-64
2022/12/23 07:28:53;;;;;;;27.87;16.70;;;;;;;9.37;100.00;99193.13;5087713;28;20467;-64
2022/12/23 07:31:21;;;;;;;32.00;17.73;;;;;;;9.30;100.00;99200.91;5082619;28;20503;-64
2022/12/23 07:33:48;;;;;;;32.37;17.70;;;;;;;9.27;100.00;99193.25;5089811;28;20461;-64
2022/12/23 07:36:15;;;;;;;28.10;16.77;;;;;;;9.36;100.00;99194.97;5083880;28;20498;-64
2022/12/23 07:38:42;;;;;;;29.77;17.30;;;;;;;9.21;100.00;99199.19;5083331;28;20479;-64
2022/12/23 07:41:08;;;;;;;29.83;16.73;;;;;;;9.23;100.00;99211.41;5084735;28;20500;-64
2022/12/23 07:43:35;;;;;;;32.57;16.00;;;;;;;9.18;100.00;99212.84;5088007;28;20467;-66
2022/12/23 07:46:06;;;;;;;33.90;17.33;;;;;;;9.16;100.00;99215.66;5091778;28;21017;-66
2022/12/23 07:48:35;;;;;;;33.73;18.30;;;;;;;9.09;100.00;99211.97;5086455;28;20444;-70
2022/12/23 07:51:02;;;;;;;30.53;17.40;;;;;;;9.12;100.00;99202.81;5081341;28;20506;-67
2022/12/23 07:53:29;;;;;;;34.87;18.80;;;;;;;9.19;100.00;99203.88;5082653;28;20514;-67
2022/12/23 07:55:57;;;;;;;34.73;17.50;;;;;;;9.18;100.00;99204.84;5088931;28;20504;-67
2022/12/23 07:58:23;;;;;;;32.60;18.57;;;;;;;9.17;100.00;99206.69;5088014;28;20455;-67
2022/12/23 08:00:50;;;;;;;44.13;20.97;;;;;;;9.17;100.00;99204.00;5086148;28;20503;-67
2022/12/23 08:03:17;;;;;;;35.93;19.43;;;;;;;9.17;100.00;99208.53;5082580;28;20498;-67
2022/12/23 08:05:46;;;;;;;37.17;19.07;;;;;;;9.16;100.00;99218.34;5081737;28;20468;-67
2022/12/23 08:08:13;;;;;;;36.93;17.70;;;;;;;9.22;100.00;99231.06;5082627;28;20447;-67
2022/12/23 08:10:39;;;;;;;39.57;20.67;;;;;;;9.20;100.00;99233.03;5081604;28;20965;-67
2022/12/23 08:13:06;;;;;;;45.27;20.50;;;;;;;9.17;100.00;99233.34;5083894;28;20484;-67
2022/12/23 08:15:33;;;;;;;39.13;20.07;;;;;;;9.13;100.00;99242.66;5083488;28;20475;-67
2022/12/23 08:17:59;;;;;;;39.23;20.23;;;;;;;9.17;100.00;99249.34;5080287;28;20456;-67
2022/12/23 08:20:26;;;;;;;40.83;21.20;;;;;;;9.15;100.00;99253.16;5081911;28;20448;-67
2022/12/23 08:22:55;;;;;;;35.60;19.67;;;;;;;9.19;100.00;99246.53;5083365;28;20881;-67
2022/12/23 08:25:22;;;;;;;36.67;19.87;;;;;;;9.17;100.00;99245.84;5082310;28;20440;-67
2022/12/23 08:27:48;;;;;;;40.27;20.60;;;;;;;9.10;100.00;99236.81;5082545;28;20452;-67
2022/12/23 08:30:15;;;;;;;42.10;21.70;;;;;;;9.14;100.00;99233.66;5082129;28;20444;-62
2022/12/23 08:32:42;;;;;;;39.90;21.10;;;;;;;9.17;100.00;99235.19;5081539;28;20510;-63
2022/12/23 08:35:09;;;;;;;37.17;20.73;;;;;;;9.17;100.00;99236.03;5082346;28;20521;-63
2022/12/23 08:37:37;;;;;;;35.17;19.43;;;;;;;9.23;100.00;99251.41;5080762;28;20496;-63
2022/12/23 08:40:06;;;;;;;40.53;21.50;;;;;;;9.14;100.00;99241.66;5079851;28;20499;-63
2022/12/23 08:42:33;;;;;;;37.90;18.50;;;;;;;9.11;100.00;99243.81;5079637;28;20504;-63
2022/12/23 08:44:59;;;;;;;35.27;18.43;;;;;;;9.25;100.00;99245.88;5083737;28;20460;-65
2022/12/23 08:47:26;;;;;;;40.90;20.10;;;;;;;9.27;100.00;99235.06;5069516;28;21046;-65
2022/12/23 08:49:53;;;;;;;38.20;20.90;;;;;;;9.28;100.00;99250.91;5081197;28;20464;-66
2022/12/23 08:52:20;;;;;;;35.80;19.47;;;;;;;9.46;100.00;99248.22;5097552;28;20487;-66
2022/12/23 08:54:46;;;;;;;40.63;20.70;;;;;;;9.39;100.00;99253.34;5085597;28;20444;-66
2022/12/23 08:57:15;;;;;;;40.00;22.10;;;;;;;9.41;100.00;99255.84;5091534;28;20852;-65
2022/12/23 08:59:42;;;;;;;36.60;19.80;;;;;;;9.35;100.00;99257.28;5084244;28;20466;-66
2022/12/23 09:02:09;;;;;;;40.10;21.23;;;;;;;9.39;100.00;99249.81;5080402;28;20479;-65
2022/12/23 09:04:36;;;;;;;41.60;22.00;;;;;;;9.39;100.00;99252.47;5081581;28;20522;-66
2022/12/23 09:07:03;;;;;;;43.40;22.47;;;;;;;9.45;100.00;99248.38;5079803;28;21015;-66
2022/12/23 09:09:30;;;;;;;44.00;22.60;;;;;;;9.60;100.00;99258.28;5082527;28;20475;-65
2022/12/23 09:11:57;;;;;;;45.10;22.90;;;;;;;9.56;100.00;99264.09;5083236;28;20517;-66
2022/12/23 09:14:25;;;;;;;39.27;20.40;;;;;;;9.74;100.00;99272.03;5081517;28;20500;-65
2022/12/23 09:16:51;;;;;;;42.67;23.60;;;;;;;9.69;100.00;99267.16;5094527;28;20505;-66
2022/12/23 09:19:19;;;;;;;40.70;22.00;;;;;;;9.67;100.00;99252.28;5100463;28;20472;-66
2022/12/23 09:21:46;;;;;;;40.53;22.57;;;;;;;9.65;100.00;99251.63;5100009;28;20491;-66
2022/12/23 09:24:13;;;;;;;42.50;23.47;;;;;;;9.89;100.00;99258.91;5100399;28;20452;-66
2022/12/23 09:26:39;;;;;;;37.70;24.20;;;;;;;10.07;100.00;99262.31;5100751;28;20479;-66
2022/12/23 09:29:06;;;;;;;39.03;21.60;;;;;;;9.91;100.00;99263.09;5101234;28;20436;-66
2022/12/23 09:31:35;;;;;;;40.77;22.50;;;;;;;9.63;100.00;99258.97;5099440;28;20552;-66
2022/12/23 09:34:01;;;;;;;41.43;23.50;;;;;;;9.83;100.00;99256.91;5100548;28;20540;-66
2022/12/23 09:36:28;;;;;;;38.30;22.00;;;;;;;10.04;100.00;99257.31;5099446;28;20479;-66
2022/12/23 09:38:56;;;;;;;38.03;21.23;;;;;;;10.01;100.00;99268.28;5100246;28;20532;-65
2022/12/23 09:41:35;;;;;;;35.27;22.13;;;;;;;10.02;100.00;99271.81;5093778;28;20509;-66
2022/12/23 09:44:15;;;;;;;37.17;21.37;;;;;;;9.92;100.00;99279.94;5080088;28;20445;-66
2022/12/23 09:46:47;;;;;;;34.53;20.33;;;;;;;9.91;100.00;99270.25;5081195;28;20510;-66
2022/12/23 09:49:16;;;;;;;31.53;19.80;;;;;;;10.08;100.00;99272.00;5086937;28;20444;-66
2022/12/23 09:51:43;;;;;;;33.43;20.50;;;;;;;9.88;100.00;99270.59;5088393;28;20472;-65
2022/12/23 09:54:15;;;;;;;32.20;20.50;;;;;;;10.05;100.00;99269.66;5094200;28;20488;-65
2022/12/23 09:56:47;;;;;;;35.63;21.33;;;;;;;9.90;100.00;99269.44;5100042;28;20475;-65
2022/12/23 09:59:23;;;;;;;37.73;20.80;;;;;;;9.92;100.00;99261.25;5099950;28;20482;-65
2022/12/23 10:01:58;;;;;;;30.13;18.70;;;;;;;9.67;100.00;99241.63;5098429;28;20615;-65
2022/12/23 10:04:41;;;;;;;36.90;19.60;;;;;;;9.94;100.00;99241.41;5089724;28;20458;-65
2022/12/23 10:07:22;;;;;;;32.40;19.73;;;;;;;9.88;100.00;99243.91;5078542;28;20483;-65
2022/12/23 10:09:51;;;;;;;31.17;19.00;;;;;;;9.93;100.00;99233.56;5078390;28;20432;-65
2022/12/23 10:12:22;;;;;;;31.20;18.40;;;;;;;9.88;100.00;99236.72;5098714;28;20479;-65
2022/12/23 10:14:50;;;;;;;29.53;17.83;;;;;;;10.07;100.00;99232.09;5088861;28;20440;-65
2022/12/23 10:17:26;;;;;;;30.90;20.30;;;;;;;9.97;100.00;99238.41;5076024;28;20501;-66
2022/12/23 10:19:54;;;;;;;31.00;18.83;;;;;;;9.94;100.00;99236.06;5081504;28;20455;-65
2022/12/23 10:22:25;;;;;;;33.70;19.70;;;;;;;10.07;100.00;99229.41;5081866;28;20480;-65
2022/12/23 10:24:54;;;;;;;30.77;18.67;;;;;;;10.12;100.00;99219.09;5080136;28;20536;-64
2022/12/23 10:27:25;;;;;;;30.17;17.93;;;;;;;10.24;100.00;99222.28;5080617;28;20475;-65
2022/12/23 10:29:52;;;;;;;29.47;18.63;;;;;;;10.26;100.00;99220.28;5079181;28;20453;-65
2022/12/23 10:32:27;;;;;;;29.73;19.10;;;;;;;10.38;100.00;99221.72;5080688;28;20525;-64
2022/12/23 10:34:57;;;;;;;27.87;18.20;;;;;;;10.51;100.00;99215.88;5076411;28;20455;-64
2022/12/23 10:37:31;;;;;;;28.47;17.27;;;;;;;10.57;100.00;99223.19;5081226;28;20499;-64
2022/12/23 10:40:11;;;;;;;27.30;16.90;;;;;;;10.44;100.00;99225.53;5077698;28;20491;-64
2022/12/23 10:42:41;;;;;;;27.67;17.60;;;;;;;10.30;100.00;99221.66;5077152;28;20471;-64
2022/12/23 10:45:23;;;;;;;30.23;18.60;;;;;;;10.49;100.00;99217.88;5080531;28;20437;-64
2022/12/23 10:48:19;;;;;;;31.40;17.83;;;;;;;10.40;100.00;99217.03;5082190;28;20913;-64
2022/12/23 10:50:57;;;;;;;25.17;16.23;;;;;;;10.56;100.00;99216.22;5083139;28;20467;-65
2022/12/23 10:53:41;;;;;;;26.37;16.70;;;;;;;10.38;100.00;99220.84;5099066;28;20498;-65
2022/12/23 10:56:08;;;;;;;21.80;15.07;;;;;;;10.40;100.00;99219.69;5099089;28;20993;-65
2022/12/23 10:58:37;;;;;;;24.07;16.47;;;;;;;10.57;100.00;99219.72;5099780;28;20455;-65
2022/12/23 11:01:06;;;;;;;21.43;16.10;;;;;;;10.65;100.00;99217.03;5098551;28;20480;-65
2022/12/23 11:03:36;;;;;;;25.07;17.83;;;;;;;10.49;100.00;99212.53;5083110;28;20601;-66
2022/12/23 11:06:06;;;;;;;27.87;17.60;;;;;;;10.42;100.00;99214.19;5097279;28;20471;-65
2022/12/23 11:08:35;;;;;;;24.63;16.13;;;;;;;10.54;100.00;99211.03;5098832;28;20811;-65
2022/12/23 11:11:02;;;;;;;25.13;15.90;;;;;;;10.37;100.00;99198.66;5103327;28;20517;-65
2022/12/23 11:13:37;;;;;;;22.90;16.20;;;;;;;10.25;100.00;99198.09;5098120;28;20502;-65
2022/12/23 11:16:16;;;;;;;23.10;15.77;;;;;;;10.28;100.00;99197.78;5098218;28;20474;-65
2022/12/23 11:19:02;;;;;;;23.30;15.33;;;;;;;10.07;100.00;99192.03;5101196;28;20461;-65
2022/12/23 11:21:31;;;;;;;23.90;15.47;;;;;;;10.27;100.00;99193.41;5092674;28;20484;-64
2022/12/23 11:24:22;;;;;;;22.77;15.17;;;;;;;10.17;100.00;99190.06;5095267;28;20620;-65
2022/12/23 11:26:51;;;;;;;22.23;14.97;;;;;;;10.28;100.00;99189.75;5085253;28;20476;-64
2022/12/23 11:29:24;;;;;;;20.47;15.37;;;;;;;10.27;100.00;99179.22;5087199;28;20444;-65
2022/12/23 11:31:51;;;;;;;20.17;14.40;;;;;;;10.40;100.00;99173.41;5086606;28;20471;-64
2022/12/23 11:34:20;;;;;;;22.87;14.73;;;;;;;10.31;100.00;99169.88;5102798;28;20518;-64
2022/12/23 11:36:54;;;;;;;23.10;15.67;;;;;;;10.24;100.00;99156.38;5098436;28;20471;-64
2022/12/23 11:39:25;;;;;;;21.03;14.27;;;;;;;10.28;100.00;99154.19;5085418;28;20485;-64
2022/12/23 11:41:53;;;;;;;21.80;13.93;;;;;;;10.41;100.00;99138.53;5082977;28;20540;-64
2022/12/23 11:44:23;;;;;;;22.07;13.80;;;;;;;10.37;100.00;99147.88;5079394;28;20453;-64
2022/12/23 11:46:50;;;;;;;23.03;14.90;;;;;;;10.28;100.00;99138.19;5095538;28;20479;-64
2022/12/23 11:49:18;;;;;;;21.40;12.83;;;;;;;10.19;100.00;99137.34;5083599;28;20466;-64
2022/12/23 11:51:46;;;;;;;19.63;13.73;;;;;;;10.35;100.00;99136.53;5100998;28;20479;-64